createdAt,value
2023-02-09T00:04:56.167Z,79.21
2023-02-09T00:10:00.589Z,79.41
2023-02-09T00:15:03.575Z,79.87
2023-02-09T00:20:07.973Z,79.42
2023-02-09T00:25:12.267Z,79.12
2023-02-09T00:30:15.520Z,79.33
2023-02-09T00:35:21.278Z,79.94
2023-02-09T00:40:25.536Z,80.55
2023-02-09T00:45:29.304Z,80.07
2023-02-09T00:50:32.275Z,79.98
2023-02-09T00:55:36.593Z,80.78
2023-02-09T01:00:39.599Z,80.36
2023-02-09T01:05:43.452Z,79.88
2023-02-09T01:10:49.128Z,80.73
2023-02-09T01:15:52.640Z,79.88
2023-02-09T01:20:55.660Z,80.44
2023-02-09T01:26:08.293Z,80.17
2023-02-09T01:31:21.704Z,80.26
2023-02-09T01:36:27.051Z,80.38
2023-02-09T01:41:31.917Z,80.14
2023-02-09T01:46:36.374Z,80.37
2023-02-09T01:51:43.968Z,80.96
2023-02-09T01:56:53.428Z,81.14
2023-02-09T02:01:56.474Z,81.61
2023-02-09T02:07:07.470Z,80.13
2023-02-09T02:12:11.934Z,80.79
2023-02-09T02:17:29.616Z,80.52
2023-02-09T02:22:56.707Z,79.78
2023-02-09T02:28:27.670Z,80.00
2023-02-09T02:33:41.602Z,79.90
2023-02-09T02:38:53.620Z,81.02
2023-02-09T02:44:04.179Z,80.96
2023-02-09T02:49:15.324Z,80.52
2023-02-09T02:54:22.803Z,80.33
2023-02-09T02:59:31.227Z,80.62
2023-02-09T03:04:37.945Z,80.54
2023-02-09T03:09:49.674Z,81.14
2023-02-09T03:15:08.901Z,80.76
2023-02-09T03:20:20.824Z,80.53
2023-02-09T03:25:28.794Z,80.98
2023-02-09T03:30:33.668Z,81.32
2023-02-09T03:35:42.392Z,81.39
2023-02-09T03:40:45.640Z,81.50
2023-02-09T03:45:48.630Z,80.38
2023-02-09T03:50:52.871Z,79.81
2023-02-09T03:55:55.790Z,80.04
2023-02-09T04:01:04.729Z,80.49
2023-02-09T04:06:10.103Z,80.32
2023-02-09T04:11:13.042Z,81.16
2023-02-09T04:16:18.075Z,81.48
2023-02-09T04:21:22.420Z,80.60
2023-02-09T04:26:26.081Z,81.79
2023-02-09T04:31:29.261Z,82.82
2023-02-09T04:36:33.589Z,82.23
2023-02-09T04:41:36.460Z,81.22
2023-02-09T04:46:39.336Z,80.90
2023-02-09T04:51:43.742Z,80.87
2023-02-09T04:56:46.658Z,80.50
2023-02-09T05:01:49.549Z,80.63
2023-02-09T05:06:53.810Z,80.37
2023-02-09T05:11:56.767Z,80.76
2023-02-09T05:16:59.772Z,81.04
2023-02-09T05:22:05.628Z,80.25
2023-02-09T05:27:08.545Z,80.34
2023-02-09T05:32:11.562Z,80.17
2023-02-09T05:37:15.930Z,80.56
2023-02-09T05:42:18.963Z,80.15
2023-02-09T05:47:24.702Z,79.90
2023-02-09T05:52:29.309Z,80.74
2023-02-09T05:57:34.375Z,80.79
2023-02-09T06:02:37.291Z,80.20
2023-02-09T06:07:41.576Z,80.48
2023-02-09T06:12:44.524Z,80.43
2023-02-09T06:17:47.557Z,80.75
2023-02-09T06:22:51.910Z,80.15
2023-02-09T06:27:54.826Z,79.48
2023-02-09T06:32:57.817Z,80.13
2023-02-09T06:38:02.070Z,80.15
2023-02-09T06:43:05.080Z,80.62
2023-02-09T06:48:08.767Z,79.84
2023-02-09T06:53:13.342Z,80.42
2023-02-09T06:58:16.247Z,80.31
2023-02-09T07:03:19.180Z,79.98
2023-02-09T07:08:23.466Z,79.78
2023-02-09T07:13:26.722Z,79.31
2023-02-09T07:18:29.689Z,79.46
2023-02-09T07:23:34.255Z,79.93
2023-02-09T07:28:38.809Z,79.81
2023-02-09T07:33:41.795Z,80.16
2023-02-09T07:38:46.490Z,79.78
2023-02-09T07:43:49.684Z,79.09
2023-02-09T07:48:52.748Z,78.32
2023-02-09T07:53:58.926Z,77.56
2023-02-09T07:59:01.806Z,76.83
2023-02-09T08:04:05.373Z,75.74
2023-02-09T08:09:10.364Z,74.70
2023-02-09T08:14:16.624Z,74.19
2023-02-09T08:19:24.271Z,75.17
2023-02-09T08:24:29.272Z,74.90
2023-02-09T08:29:32.721Z,73.38
2023-02-09T08:34:35.653Z,73.18
2023-02-09T08:39:39.961Z,72.63
2023-02-09T08:44:42.961Z,71.75
2023-02-09T08:49:45.961Z,70.93
2023-02-09T08:54:50.257Z,70.03
2023-02-09T08:59:53.200Z,69.79
2023-02-09T09:04:56.143Z,67.73
2023-02-09T09:10:00.461Z,66.81
2023-02-09T09:15:03.450Z,65.58
2023-02-09T09:20:07.223Z,64.28
2023-02-09T09:25:11.630Z,62.50
2023-02-09T09:30:15.182Z,63.00
2023-02-09T09:35:18.138Z,62.44
2023-02-09T09:40:26.146Z,62.55
2023-02-09T09:45:31.912Z,61.44
2023-02-09T09:50:40.211Z,64.35
2023-02-09T09:55:46.319Z,64.08
2023-02-09T10:00:51.150Z,61.06
2023-02-09T10:05:56.559Z,61.67
2023-02-09T10:11:04.805Z,61.01
2023-02-09T10:16:17.281Z,58.73
2023-02-09T10:21:20.717Z,58.06
2023-02-09T10:26:27.101Z,58.46
2023-02-09T10:31:34.993Z,57.90
2023-02-09T10:36:47.865Z,56.06
2023-02-09T10:41:54.465Z,57.82
2023-02-09T10:47:11.653Z,57.11
2023-02-09T10:52:20.453Z,55.74
2023-02-09T10:57:28.411Z,54.68
2023-02-09T11:02:38.098Z,54.87
2023-02-09T11:07:43.193Z,53.82
2023-02-09T11:12:48.199Z,51.41
2023-02-09T11:17:55.467Z,50.51
2023-02-09T11:23:21.456Z,49.97
2023-02-09T11:28:36.443Z,50.38
2023-02-09T11:33:48.461Z,47.83
2023-02-09T11:38:55.358Z,48.40
2023-02-09T11:44:03.663Z,48.95
2023-02-09T11:49:17.939Z,46.26
2023-02-09T11:54:25.676Z,45.29
2023-02-09T11:59:34.473Z,46.09
2023-02-09T12:04:45.536Z,49.14
2023-02-09T12:09:56.794Z,46.36
2023-02-09T12:15:13.447Z,46.62
2023-02-09T12:20:28.841Z,47.72
2023-02-09T12:25:51.260Z,46.45
2023-02-09T12:31:05.733Z,45.43
2023-02-09T12:36:29.055Z,47.53
2023-02-09T12:41:52.946Z,46.22
2023-02-09T12:46:58.147Z,45.47
2023-02-09T12:52:18.219Z,45.30
2023-02-09T12:57:54.305Z,47.47
2023-02-09T13:03:12.233Z,45.24
2023-02-09T13:08:22.503Z,44.64
2023-02-09T13:13:34.759Z,44.24
2023-02-09T13:18:47.342Z,45.36
2023-02-09T13:24:00.397Z,43.53
2023-02-09T13:29:20.484Z,45.61
2023-02-09T13:34:34.540Z,44.54
2023-02-09T13:39:39.664Z,43.13
2023-02-09T13:44:46.149Z,43.26
2023-02-09T13:50:01.900Z,42.73
2023-02-09T13:55:13.652Z,46.42
2023-02-09T14:00:24.779Z,42.79
2023-02-09T14:05:36.204Z,48.37
2023-02-09T14:10:41.994Z,48.01
2023-02-09T14:16:07.540Z,50.20
2023-02-09T14:21:32.364Z,51.02
2023-02-09T14:26:38.777Z,52.05
2023-02-09T14:31:44.445Z,53.50
2023-02-09T14:36:55.131Z,54.56
2023-02-09T14:42:18.173Z,55.54
2023-02-09T14:47:37.331Z,56.98
2023-02-09T14:52:46.729Z,55.85
2023-02-09T14:57:50.180Z,51.91
2023-02-09T15:02:54.285Z,49.12
2023-02-09T15:08:05.795Z,47.82
2023-02-09T15:13:12.075Z,46.77
2023-02-09T15:18:19.687Z,47.93
2023-02-09T15:23:23.969Z,51.73
2023-02-09T15:28:30.071Z,55.49
2023-02-09T15:33:33.081Z,51.46
2023-02-09T15:38:37.638Z,53.88
2023-02-09T15:43:57.906Z,55.47
2023-02-09T15:49:00.878Z,52.37
2023-02-09T15:54:08.760Z,53.69
2023-02-09T15:59:18.944Z,53.84
2023-02-09T16:04:21.839Z,55.45
2023-02-09T16:09:30.900Z,57.47
2023-02-09T16:14:33.900Z,58.95
2023-02-09T16:19:37.872Z,61.08
2023-02-09T16:24:46.025Z,59.95
2023-02-09T16:29:48.875Z,59.79
2023-02-09T16:34:52.279Z,60.18
2023-02-09T16:39:58.275Z,59.90
2023-02-09T16:45:01.950Z,59.50
2023-02-09T16:50:15.397Z,59.32
2023-02-09T16:55:26.542Z,59.45
2023-02-09T17:00:33.674Z,62.67
2023-02-09T17:05:37.747Z,62.92
2023-02-09T17:10:42.171Z,65.13
2023-02-09T17:15:47.078Z,63.95
2023-02-09T17:20:54.152Z,63.98
2023-02-09T17:25:58.667Z,63.71
2023-02-09T17:31:03.754Z,65.10
2023-02-09T17:41:36.935Z,62.26
2023-02-09T17:46:39.834Z,62.22
2023-02-09T17:51:46.132Z,63.03
2023-02-09T17:56:50.389Z,64.15
2023-02-09T18:01:55.235Z,63.46
2023-02-09T18:06:58.340Z,62.60
2023-02-09T18:12:05.045Z,61.16
2023-02-09T18:17:07.901Z,61.37
2023-02-09T18:22:14.061Z,62.22
2023-02-09T18:27:20.915Z,62.05
2023-02-09T18:32:23.996Z,63.74
2023-02-09T18:37:26.910Z,64.58
2023-02-09T18:42:31.106Z,66.38
2023-02-09T18:47:33.952Z,62.85
2023-02-09T18:52:45.107Z,63.04
2023-02-09T18:57:49.318Z,63.19
2023-02-09T19:02:54.212Z,63.99
2023-02-09T19:07:59.525Z,63.35
2023-02-09T19:13:04.735Z,63.06
2023-02-09T19:18:07.637Z,63.76
2023-02-09T19:23:10.479Z,62.79
2023-02-09T19:28:15.530Z,63.74
2023-02-09T19:33:18.451Z,63.74
2023-02-09T19:38:21.298Z,64.10
2023-02-09T19:43:25.529Z,65.76
2023-02-09T19:48:28.399Z,65.10
2023-02-09T19:53:31.618Z,64.83
2023-02-09T19:58:39.306Z,63.87
2023-02-09T20:03:42.462Z,65.28
2023-02-09T20:08:45.828Z,64.94
2023-02-09T20:13:53.252Z,64.74
2023-02-09T20:18:56.386Z,66.51
2023-02-09T20:23:59.297Z,68.33
2023-02-09T20:29:05.307Z,68.18
2023-02-09T20:34:12.619Z,68.36
2023-02-09T20:39:16.964Z,69.34
2023-02-09T20:44:38.362Z,69.58
2023-02-09T20:49:41.202Z,68.82
2023-02-09T20:54:44.265Z,70.04
2023-02-09T20:59:48.734Z,70.36
2023-02-09T21:04:51.610Z,71.09
2023-02-09T21:09:55.897Z,69.39
2023-02-09T21:15:00.134Z,70.07
2023-02-09T21:20:03.390Z,67.92
2023-02-09T21:25:06.609Z,68.62
2023-02-09T21:30:12.187Z,69.95
2023-02-09T21:35:15.247Z,69.86
2023-02-09T21:40:20.375Z,67.82
2023-02-09T21:45:26.353Z,69.38
2023-02-09T21:50:29.314Z,69.41
2023-02-09T21:55:32.153Z,70.48
2023-02-09T22:00:36.407Z,70.37
2023-02-09T22:05:39.258Z,68.67
2023-02-09T22:10:42.121Z,67.47
2023-02-09T22:15:46.935Z,66.38
2023-02-09T22:20:50.859Z,66.80
2023-02-09T22:25:59.566Z,65.13
2023-02-09T22:31:08.359Z,65.85
2023-02-09T22:36:13.492Z,64.58
2023-02-09T22:41:22.257Z,65.21
2023-02-09T22:46:28.671Z,64.56
2023-02-09T22:51:32.018Z,64.35
2023-02-09T22:56:35.215Z,64.61
2023-02-09T23:01:39.583Z,64.79
2023-02-09T23:06:42.483Z,64.51
2023-02-09T23:11:45.345Z,64.87
2023-02-09T23:16:49.628Z,64.49
2023-02-09T23:21:53.159Z,64.47
2023-02-09T23:26:56.035Z,64.42
2023-02-09T23:32:00.223Z,64.82
2023-02-09T23:37:13.237Z,65.17
2023-02-09T23:42:21.740Z,64.78
2023-02-09T23:47:26.035Z,64.96
2023-02-09T23:52:29.019Z,65.20
2023-02-09T23:57:32.013Z,64.90
